createdAt,value
2019-01-12T00:00:37.433Z,5.60
2019-01-12T00:03:06.184Z,5.60
2019-01-12T00:05:34.914Z,5.60
2019-01-12T00:08:03.941Z,5.60
2019-01-12T00:10:32.393Z,5.50
2019-01-12T00:13:00.872Z,5.50
2019-01-12T00:15:29.320Z,5.50
2019-01-12T00:17:57.836Z,5.60
2019-01-12T00:20:26.441Z,5.50
2019-01-12T00:22:54.894Z,5.60
2019-01-12T00:25:23.333Z,5.60
2019-01-12T00:27:51.801Z,5.60
2019-01-12T00:30:20.362Z,5.60
2019-01-12T00:32:48.833Z,5.60
2019-01-12T00:35:17.268Z,5.60
2019-01-12T00:37:45.750Z,5.60
2019-01-12T00:40:14.420Z,5.60
2019-01-12T00:42:42.875Z,5.60
2019-01-12T00:45:13.265Z,5.60
2019-01-12T00:47:41.788Z,5.60
2019-01-12T00:50:16.291Z,5.60
2019-01-12T00:52:44.743Z,5.60
2019-01-12T00:55:13.421Z,5.60
2019-01-12T00:57:41.876Z,5.50
2019-01-12T01:00:13.619Z,5.50
2019-01-12T01:02:42.100Z,5.50
2019-01-12T01:05:10.775Z,5.50
2019-01-12T01:07:39.573Z,5.50
2019-01-12T01:10:11.670Z,5.50
2019-01-12T01:12:40.125Z,5.50
2019-01-12T01:15:10.600Z,5.50
2019-01-12T01:17:39.055Z,5.60
2019-01-12T01:20:10.136Z,5.50
2019-01-12T01:22:38.596Z,5.50
2019-01-12T01:25:08.473Z,5.60
2019-01-12T01:27:37.051Z,5.50
2019-01-12T01:30:14.887Z,5.50
2019-01-12T01:32:43.328Z,5.50
2019-01-12T01:35:12.226Z,5.50
2019-01-12T01:37:40.814Z,5.50
2019-01-12T01:40:12.211Z,5.50
2019-01-12T01:42:40.916Z,5.50
2019-01-12T01:45:12.558Z,5.50
2019-01-12T01:47:41.070Z,5.50
2019-01-12T01:50:13.161Z,5.50
2019-01-12T01:52:41.674Z,5.50
2019-01-12T01:55:10.278Z,5.50
2019-01-12T01:57:38.796Z,5.50
2019-01-12T02:00:15.638Z,5.50
2019-01-12T02:02:44.151Z,5.40
2019-01-12T02:05:12.974Z,5.40
2019-01-12T02:07:41.563Z,5.40
2019-01-12T02:10:16.067Z,5.40
2019-01-12T02:12:44.601Z,5.50
2019-01-12T02:15:15.000Z,5.40
2019-01-12T02:17:43.572Z,5.40
2019-01-12T02:20:12.377Z,5.30
2019-01-12T02:22:40.816Z,5.40
2019-01-12T02:25:10.967Z,5.40
2019-01-12T02:27:39.437Z,5.40
2019-01-12T02:30:19.893Z,5.40
2019-01-12T02:32:48.348Z,5.40
2019-01-12T02:35:16.787Z,5.30
2019-01-12T02:37:45.255Z,5.30
2019-01-12T02:40:14.002Z,5.30
2019-01-12T02:42:42.536Z,5.30
2019-01-12T02:45:13.120Z,5.30
2019-01-12T02:47:41.575Z,5.30
2019-01-12T02:50:12.266Z,5.30
2019-01-12T02:52:40.798Z,5.30
2019-01-12T02:55:10.181Z,5.30
2019-01-12T02:57:38.623Z,5.30
2019-01-12T03:00:15.857Z,5.30
2019-01-12T03:02:44.315Z,5.30
2019-01-12T03:05:12.924Z,5.30
2019-01-12T03:07:41.556Z,5.30
2019-01-12T03:10:12.740Z,5.30
2019-01-12T03:12:41.185Z,5.40
2019-01-12T03:15:14.465Z,5.30
2019-01-12T03:17:43.098Z,5.30
2019-01-12T03:20:14.499Z,5.30
2019-01-12T03:22:43.033Z,5.30
2019-01-12T03:25:17.985Z,5.30
2019-01-12T03:27:41.886Z,5.40
2019-01-12T03:30:15.606Z,5.30
2019-01-12T03:32:44.115Z,5.30
2019-01-12T03:35:12.929Z,5.40
2019-01-12T03:37:41.428Z,5.30
2019-01-12T03:40:13.104Z,5.30
2019-01-12T03:42:41.621Z,5.30
2019-01-12T03:45:12.619Z,5.30
2019-01-12T03:47:41.241Z,5.20
2019-01-12T03:50:12.211Z,5.30
2019-01-12T03:52:40.715Z,5.30
2019-01-12T03:55:09.708Z,5.20
2019-01-12T03:57:38.228Z,5.20
2019-01-12T04:00:09.753Z,5.20
2019-01-12T04:02:39.862Z,5.20
2019-01-12T04:05:08.351Z,5.20
2019-01-12T04:07:36.811Z,5.20
2019-01-12T04:10:08.297Z,5.20
2019-01-12T04:12:36.761Z,5.20
2019-01-12T04:15:07.936Z,5.20
2019-01-12T04:17:36.459Z,5.20
2019-01-12T04:20:08.449Z,5.20
2019-01-12T04:22:36.907Z,5.20
2019-01-12T04:25:06.087Z,5.10
2019-01-12T04:27:34.628Z,5.10
2019-01-12T04:30:03.436Z,5.10
2019-01-12T04:32:31.877Z,5.10
2019-01-12T04:35:00.333Z,5.10
2019-01-12T04:37:29.131Z,5.10
2019-01-12T04:39:57.596Z,5.00
2019-01-12T04:42:26.032Z,5.00
2019-01-12T04:44:54.492Z,5.00
2019-01-12T04:47:22.927Z,4.90
2019-01-12T04:49:51.364Z,4.90
2019-01-12T04:52:19.901Z,4.90
2019-01-12T04:54:48.337Z,4.90
2019-01-12T04:57:16.822Z,4.90
2019-01-12T04:59:50.994Z,4.80
2019-01-12T05:02:19.449Z,4.90
2019-01-12T05:04:47.896Z,4.90
2019-01-12T05:07:20.027Z,4.90
2019-01-12T05:09:48.473Z,4.90
2019-01-12T05:12:20.611Z,4.80
2019-01-12T05:14:49.055Z,4.80
2019-01-12T05:17:17.656Z,4.80
2019-01-12T05:19:46.147Z,4.80
2019-01-12T05:22:14.601Z,4.70
2019-01-12T05:24:43.141Z,4.70
2019-01-12T05:27:11.866Z,4.70
2019-01-12T05:29:40.397Z,4.70
2019-01-12T05:32:08.917Z,4.70
2019-01-12T05:34:37.372Z,4.70
2019-01-12T05:37:05.815Z,4.70
2019-01-12T05:39:35.889Z,4.70
2019-01-12T05:42:04.464Z,4.70
2019-01-12T05:44:38.529Z,4.70
2019-01-12T05:47:06.986Z,4.70
2019-01-12T05:49:39.071Z,4.70
2019-01-12T05:52:07.580Z,4.70
2019-01-12T05:54:36.042Z,4.70
2019-01-12T05:57:04.544Z,4.70
2019-01-12T05:59:33.077Z,4.70
2019-01-12T06:02:01.618Z,4.70
2019-01-12T06:04:30.057Z,4.70
2019-01-12T06:06:58.519Z,4.70
2019-01-12T06:09:26.969Z,4.70
2019-01-12T06:11:55.431Z,4.70
2019-01-12T06:14:23.877Z,4.70
2019-01-12T06:16:52.440Z,4.70
2019-01-12T06:19:20.885Z,4.70
2019-01-12T06:21:49.434Z,4.70
2019-01-12T06:24:18.083Z,4.70
2019-01-12T06:26:46.575Z,4.70
2019-01-12T06:29:15.045Z,4.70
2019-01-12T06:31:43.617Z,4.70
2019-01-12T06:34:12.117Z,4.70
2019-01-12T06:36:40.581Z,4.70
2019-01-12T06:39:11.333Z,4.70
2019-01-12T06:41:39.850Z,4.70
2019-01-12T06:44:15.817Z,4.70
2019-01-12T06:46:44.268Z,4.70
2019-01-12T06:49:13.079Z,4.80
2019-01-12T06:51:41.624Z,4.70
2019-01-12T06:54:10.109Z,4.70
2019-01-12T06:56:38.553Z,4.80
2019-01-12T06:59:07.018Z,4.80
2019-01-12T07:01:35.478Z,4.70
2019-01-12T07:04:05.186Z,4.80
2019-01-12T07:06:33.651Z,4.80
2019-01-12T07:09:02.163Z,4.80
2019-01-12T07:11:30.621Z,4.80
2019-01-12T07:13:59.080Z,4.70
2019-01-12T07:16:29.081Z,4.80
2019-01-12T07:18:57.549Z,4.80
2019-01-12T07:21:25.997Z,4.80
2019-01-12T07:23:54.455Z,4.80
2019-01-12T07:26:22.928Z,4.80
2019-01-12T07:28:51.364Z,4.80
2019-01-12T07:31:19.823Z,4.80
2019-01-12T07:33:48.272Z,4.80
2019-01-12T07:36:16.816Z,4.80
2019-01-12T07:38:45.257Z,4.80
2019-01-12T07:41:13.717Z,4.70
2019-01-12T07:43:45.264Z,4.70
2019-01-12T07:46:13.833Z,4.70
2019-01-12T07:48:42.280Z,4.80
2019-01-12T07:51:10.740Z,4.80
2019-01-12T07:53:39.189Z,3.50
2019-01-12T07:56:07.716Z,4.80
2019-01-12T07:58:36.525Z,4.80
2019-01-12T08:01:05.057Z,4.80
2019-01-12T08:03:33.557Z,4.80
2019-01-12T08:06:02.088Z,4.90
2019-01-12T08:08:30.609Z,4.90
2019-01-12T08:10:59.447Z,4.90
2019-01-12T08:13:28.050Z,4.90
2019-01-12T08:15:56.565Z,4.90
2019-01-12T08:18:25.025Z,4.90
2019-01-12T08:20:53.492Z,4.90
2019-01-12T08:23:21.971Z,4.90
2019-01-12T08:25:50.498Z,4.90
2019-01-12T08:28:18.964Z,5.00
2019-01-12T08:30:47.432Z,5.00
2019-01-12T08:33:18.939Z,5.00
2019-01-12T08:35:47.397Z,5.00
2019-01-12T08:38:18.936Z,5.00
2019-01-12T08:40:47.467Z,5.00
2019-01-12T08:43:20.359Z,5.10
2019-01-12T08:45:48.796Z,5.00
2019-01-12T08:48:17.232Z,5.00
2019-01-12T08:50:45.693Z,5.10
2019-01-12T08:53:14.154Z,5.10
2019-01-12T08:55:42.592Z,5.10
2019-01-12T08:58:13.900Z,5.10
2019-01-12T09:00:42.368Z,5.10
2019-01-12T09:03:10.806Z,5.10
2019-01-12T09:05:39.266Z,5.10
2019-01-12T09:08:07.864Z,5.10
2019-01-12T09:10:37.866Z,5.10
2019-01-12T09:13:06.304Z,5.10
2019-01-12T09:15:36.495Z,5.10
2019-01-12T09:18:05.073Z,5.20
2019-01-12T09:20:33.544Z,5.20
2019-01-12T09:23:01.990Z,5.20
2019-01-12T09:25:30.449Z,5.20
2019-01-12T09:27:59.340Z,5.30
2019-01-12T09:30:27.971Z,5.30
2019-01-12T09:32:56.414Z,5.30
2019-01-12T09:35:24.954Z,5.30
2019-01-12T09:37:53.384Z,5.40
2019-01-12T09:40:21.960Z,5.30
2019-01-12T09:42:50.789Z,5.40
2019-01-12T09:45:19.411Z,5.40
2019-01-12T09:47:48.050Z,5.40
2019-01-12T09:50:20.050Z,5.40
2019-01-12T09:54:41.919Z,5.50
2019-01-12T09:57:10.381Z,5.40
2019-01-12T09:59:38.836Z,5.40
2019-01-12T10:02:07.296Z,5.40
2019-01-12T10:04:35.877Z,5.40
2019-01-12T10:07:04.592Z,5.40
2019-01-12T10:09:33.150Z,5.40
2019-01-12T10:12:01.669Z,5.40
2019-01-12T10:14:30.136Z,5.40
2019-01-12T10:16:58.575Z,5.50
2019-01-12T10:19:27.040Z,5.50
2019-01-12T10:21:55.805Z,5.50
2019-01-12T10:24:24.271Z,5.60
2019-01-12T10:26:58.535Z,5.60
2019-01-12T10:29:23.049Z,5.60
2019-01-12T10:31:51.483Z,5.60
2019-01-12T10:34:20.057Z,5.60
2019-01-12T10:36:48.567Z,5.60
2019-01-12T10:39:18.013Z,5.60
2019-01-12T10:41:46.631Z,5.60
2019-01-12T10:44:15.211Z,5.60
2019-01-12T10:46:43.834Z,5.70
2019-01-12T10:49:15.013Z,5.70
2019-01-12T10:51:43.545Z,5.70
2019-01-12T10:54:12.057Z,5.80
2019-01-12T10:56:40.584Z,5.90
2019-01-12T10:59:09.025Z,5.90
2019-01-12T11:01:37.475Z,5.90
2019-01-12T11:04:05.912Z,5.90
2019-01-12T11:06:35.230Z,5.90
2019-01-12T11:09:05.221Z,5.90
2019-01-12T11:11:33.811Z,5.90
2019-01-12T11:14:02.364Z,5.90
2019-01-12T11:16:30.866Z,6.00
2019-01-12T11:18:59.480Z,5.90
2019-01-12T11:21:28.142Z,5.90
2019-01-12T11:23:56.659Z,5.90
2019-01-12T11:26:25.242Z,5.90
2019-01-12T11:28:53.933Z,5.90
2019-01-12T11:31:22.933Z,5.90
2019-01-12T11:33:51.369Z,6.00
2019-01-12T11:36:19.820Z,6.10
2019-01-12T11:38:48.300Z,6.00
2019-01-12T11:41:16.751Z,6.10
2019-01-12T11:43:45.276Z,6.10
2019-01-12T11:46:13.709Z,6.00
2019-01-12T11:48:43.552Z,5.90
2019-01-12T11:51:12.973Z,5.90
2019-01-12T11:53:41.591Z,5.80
2019-01-12T11:56:10.098Z,5.80
2019-01-12T11:58:38.558Z,5.70
2019-01-12T12:01:07.142Z,5.70
2019-01-12T12:03:35.587Z,5.80
2019-01-12T12:06:04.563Z,5.80
2019-01-12T12:08:33.098Z,5.80
2019-01-12T12:11:01.604Z,5.80
2019-01-12T12:13:30.843Z,5.90
2019-01-12T12:15:59.339Z,5.90
2019-01-12T12:18:27.805Z,5.90
2019-01-12T12:20:56.241Z,5.70
2019-01-12T12:23:24.699Z,5.70
2019-01-12T12:25:53.282Z,5.60
2019-01-12T12:28:21.803Z,5.70
2019-01-12T12:30:50.333Z,5.60
2019-01-12T12:33:18.776Z,5.60
2019-01-12T12:35:47.356Z,5.70
2019-01-12T12:38:15.815Z,5.70
2019-01-12T12:40:44.278Z,5.60
2019-01-12T12:43:12.793Z,5.70
2019-01-12T12:45:41.329Z,5.70
2019-01-12T12:48:09.771Z,5.70
2019-01-12T12:50:38.233Z,5.70
2019-01-12T12:53:06.741Z,5.70
2019-01-12T12:55:35.318Z,5.80
2019-01-12T12:58:04.080Z,5.70
2019-01-12T13:00:32.733Z,5.70
2019-01-12T13:03:01.388Z,5.80
2019-01-12T13:05:30.041Z,5.80
2019-01-12T13:07:58.712Z,5.70
2019-01-12T13:10:28.599Z,5.80
2019-01-12T13:12:57.201Z,5.80
2019-01-12T13:15:25.707Z,5.80
2019-01-12T13:17:54.268Z,5.80
2019-01-12T13:20:22.992Z,5.80
2019-01-12T13:22:51.439Z,5.80
2019-01-12T13:25:20.120Z,5.80
2019-01-12T13:27:48.708Z,5.80
2019-01-12T13:30:19.760Z,5.80
2019-01-12T13:32:48.241Z,5.80
2019-01-12T13:35:16.669Z,5.80
2019-01-12T13:37:45.344Z,5.80
2019-01-12T13:40:17.199Z,5.80
2019-01-12T13:42:45.707Z,5.80
2019-01-12T13:45:16.611Z,5.80
2019-01-12T13:47:45.193Z,5.80
2019-01-12T13:50:16.189Z,5.80
2019-01-12T13:52:44.704Z,5.80
2019-01-12T13:55:14.895Z,5.80
2019-01-12T13:57:47.742Z,5.90
2019-01-12T14:00:17.165Z,5.80
2019-01-12T14:02:46.035Z,5.80
2019-01-12T14:05:14.563Z,5.90
2019-01-12T14:07:43.009Z,5.90
2019-01-12T14:10:17.806Z,5.90
2019-01-12T14:12:46.979Z,5.90
2019-01-12T14:15:19.851Z,5.90
2019-01-12T14:17:48.696Z,5.90
2019-01-12T14:20:20.365Z,5.90
2019-01-12T14:22:48.873Z,5.90
2019-01-12T14:25:17.303Z,5.90
2019-01-12T14:27:45.934Z,5.90
2019-01-12T14:30:17.386Z,6.00
2019-01-12T14:32:45.840Z,5.90
2019-01-12T14:35:16.319Z,6.00
2019-01-12T14:37:44.918Z,6.00
2019-01-12T14:40:16.268Z,6.00
2019-01-12T14:42:45.227Z,6.00
2019-01-12T14:45:16.672Z,6.00
2019-01-12T14:47:45.131Z,6.00
2019-01-12T14:50:13.718Z,6.00
2019-01-12T14:52:42.371Z,6.10
2019-01-12T14:55:14.045Z,6.10
2019-01-12T14:57:42.497Z,6.00
2019-01-12T15:00:14.194Z,6.10
2019-01-12T15:02:42.775Z,6.10
2019-01-12T15:05:13.939Z,6.10
2019-01-12T15:07:42.888Z,6.10
2019-01-12T15:10:14.117Z,6.10
2019-01-12T15:12:42.550Z,6.10
2019-01-12T15:15:13.453Z,6.10
2019-01-12T15:17:41.953Z,6.10
2019-01-12T15:20:13.519Z,6.10
2019-01-12T15:22:43.246Z,6.10
2019-01-12T15:25:12.805Z,6.10
2019-01-12T15:27:41.548Z,6.10
2019-01-12T15:30:15.944Z,6.20
2019-01-12T15:32:44.384Z,6.20
2019-01-12T15:35:13.150Z,6.20
2019-01-12T15:37:41.653Z,6.20
2019-01-12T15:40:13.140Z,6.20
2019-01-12T15:42:41.652Z,6.20
2019-01-12T15:45:13.330Z,6.30
2019-01-12T15:47:41.888Z,6.20
2019-01-12T15:50:13.529Z,6.30
2019-01-12T15:52:41.981Z,6.30
2019-01-12T15:55:10.756Z,6.30
2019-01-12T15:57:39.219Z,6.20
2019-01-12T16:06:50.099Z,6.30
2019-01-12T16:09:21.404Z,6.30
2019-01-12T16:11:50.121Z,6.20
2019-01-12T16:14:19.563Z,6.30
2019-01-12T16:16:49.952Z,6.30
2019-01-12T16:19:18.474Z,6.30
2019-01-12T16:21:46.912Z,6.30
2019-01-12T16:24:15.370Z,6.30
2019-01-12T16:26:43.816Z,6.40
2019-01-12T16:29:12.269Z,6.40
2019-01-12T16:31:40.712Z,6.40
2019-01-12T16:34:09.174Z,6.40
2019-01-12T16:36:37.708Z,6.40
2019-01-12T16:39:08.093Z,6.40
2019-01-12T16:41:36.609Z,6.40
2019-01-12T16:44:05.681Z,6.40
2019-01-12T16:46:34.199Z,6.40
2019-01-12T16:49:02.670Z,6.40
2019-01-12T16:51:31.320Z,6.40
2019-01-12T16:53:59.790Z,6.50
2019-01-12T16:56:28.228Z,6.40
2019-01-12T16:58:56.657Z,6.30
2019-01-12T17:01:25.135Z,6.30
2019-01-12T17:03:53.555Z,6.20
2019-01-12T17:06:22.024Z,6.20
2019-01-12T17:08:50.797Z,6.00
2019-01-12T17:11:19.317Z,5.90
2019-01-12T17:13:47.781Z,5.90
2019-01-12T17:16:16.241Z,5.80
2019-01-12T17:18:44.742Z,5.80
2019-01-12T17:21:13.265Z,5.80
2019-01-12T17:23:41.687Z,5.70
2019-01-12T17:26:10.216Z,5.80
2019-01-12T17:28:38.733Z,5.70
2019-01-12T17:31:07.232Z,5.70
2019-01-12T17:33:35.696Z,5.70
2019-01-12T17:36:04.504Z,5.70
2019-01-12T17:38:32.969Z,5.80
2019-01-12T17:41:01.472Z,5.80
2019-01-12T17:43:29.988Z,5.70
2019-01-12T17:45:58.436Z,5.70
2019-01-12T17:48:26.891Z,5.70
2019-01-12T17:50:55.771Z,5.70
2019-01-12T17:53:24.258Z,5.80
2019-01-12T17:55:52.687Z,5.80
2019-01-12T17:58:21.157Z,5.80
2019-01-12T18:00:53.117Z,5.90
2019-01-12T18:03:21.643Z,6.00
2019-01-12T18:05:50.316Z,6.10
2019-01-12T18:08:19.123Z,6.10
2019-01-12T18:10:47.592Z,6.10
2019-01-12T18:13:16.196Z,6.20
2019-01-12T18:15:44.649Z,6.20
2019-01-12T18:18:13.235Z,6.30
2019-01-12T18:20:41.843Z,6.40
2019-01-12T18:23:10.349Z,6.30
2019-01-12T18:25:38.912Z,6.40
2019-01-12T18:28:07.420Z,6.40
2019-01-12T18:30:36.632Z,6.40
2019-01-12T18:33:05.232Z,6.50
2019-01-12T18:35:33.696Z,6.50
2019-01-12T18:38:02.197Z,6.50
2019-01-12T18:40:30.727Z,6.50
2019-01-12T18:42:59.268Z,6.50
2019-01-12T18:45:27.732Z,6.50
2019-01-12T18:47:56.235Z,8.20
2019-01-12T18:50:26.642Z,6.60
2019-01-12T18:52:55.232Z,6.50
2019-01-12T18:55:24.098Z,6.60
2019-01-12T18:57:52.542Z,6.60
2019-01-12T19:00:23.514Z,6.60
2019-01-12T19:02:52.123Z,6.60
2019-01-12T19:05:20.815Z,6.60
2019-01-12T19:07:49.708Z,6.50
2019-01-12T19:10:18.409Z,6.50
2019-01-12T19:12:46.859Z,6.50
2019-01-12T19:15:20.667Z,6.60
2019-01-12T19:17:49.123Z,6.60
2019-01-12T19:20:17.560Z,6.50
2019-01-12T19:22:46.156Z,6.50
2019-01-12T19:25:15.229Z,6.50
2019-01-12T19:27:43.752Z,6.50
2019-01-12T19:30:15.126Z,6.50
2019-01-12T19:32:43.753Z,6.60
2019-01-12T19:35:12.369Z,6.50
2019-01-12T19:37:40.824Z,6.50
2019-01-12T19:40:11.983Z,6.60
2019-01-12T19:42:40.441Z,6.50
2019-01-12T19:45:11.312Z,6.50
2019-01-12T19:47:39.941Z,6.60
2019-01-12T19:50:11.585Z,6.60
2019-01-12T19:52:40.040Z,6.60
2019-01-12T19:55:08.725Z,6.60
2019-01-12T19:57:37.257Z,6.60
2019-01-12T20:00:08.857Z,6.60
2019-01-12T20:02:37.411Z,6.60
2019-01-12T20:05:07.233Z,6.60
2019-01-12T20:07:35.841Z,6.70
2019-01-12T20:10:07.530Z,6.70
2019-01-12T20:12:36.075Z,6.60
2019-01-12T20:15:07.315Z,6.60
2019-01-12T20:17:35.764Z,6.70
2019-01-12T20:20:07.229Z,6.70
2019-01-12T20:22:35.682Z,6.70
2019-01-12T20:25:06.553Z,6.60
2019-01-12T20:27:34.990Z,6.60
2019-01-12T20:30:05.285Z,6.60
2019-01-12T20:32:48.675Z,6.60
2019-01-12T20:35:20.385Z,6.60
2019-01-12T20:38:00.952Z,6.60
2019-01-12T20:40:32.487Z,6.60
2019-01-12T20:43:09.900Z,6.60
2019-01-12T20:45:59.535Z,6.70
2019-01-12T20:48:34.008Z,6.70
2019-01-12T20:51:08.289Z,6.70
2019-01-12T20:53:51.131Z,6.70
2019-01-12T20:56:39.252Z,6.70
2019-01-12T20:59:16.084Z,6.60
2019-01-12T21:01:56.290Z,6.70
2019-01-12T21:04:27.901Z,6.70
2019-01-12T21:07:17.337Z,6.70
2019-01-12T21:09:54.327Z,6.70
2019-01-12T21:12:32.053Z,6.80
2019-01-12T21:15:02.832Z,6.80
2019-01-12T21:17:31.366Z,6.80
2019-01-12T21:19:59.806Z,6.80
2019-01-12T21:22:28.259Z,6.80
2019-01-12T21:24:56.694Z,6.70
2019-01-12T21:27:25.227Z,6.70
2019-01-12T21:29:53.752Z,6.70
2019-01-12T21:32:22.287Z,6.70
2019-01-12T21:34:50.736Z,6.70
2019-01-12T21:37:19.191Z,6.70
2019-01-12T21:39:47.645Z,6.70
2019-01-12T21:42:16.112Z,6.80
2019-01-12T21:44:44.567Z,6.80
2019-01-12T21:47:13.002Z,6.80
2019-01-12T21:49:41.469Z,6.80
2019-01-12T21:52:09.977Z,6.80
2019-01-12T21:54:38.433Z,6.80
2019-01-12T21:57:06.943Z,6.80
2019-01-12T21:59:42.242Z,6.80
2019-01-12T22:02:05.797Z,6.80
2019-01-12T22:04:34.345Z,6.70
2019-01-12T22:07:02.802Z,6.70
2019-01-12T22:09:31.277Z,6.70
2019-01-12T22:11:59.821Z,6.80
2019-01-12T22:14:28.348Z,6.80
2019-01-12T22:16:56.872Z,6.80
2019-01-12T22:19:25.342Z,6.70
2019-01-12T22:21:53.912Z,6.80
2019-01-12T22:24:22.474Z,6.80
2019-01-12T22:26:50.929Z,6.80
2019-01-12T22:29:19.536Z,6.80
2019-01-12T22:31:47.996Z,6.80
2019-01-12T22:34:16.537Z,6.80
2019-01-12T22:36:45.051Z,6.80
2019-01-12T22:39:13.616Z,6.80
2019-01-12T22:41:42.112Z,6.80
2019-01-12T22:44:10.574Z,6.80
2019-01-12T22:46:39.008Z,6.80
2019-01-12T22:49:07.532Z,6.80
2019-01-12T22:51:36.057Z,6.80
2019-01-12T22:54:05.165Z,6.80
2019-01-12T22:56:33.703Z,6.80
2019-01-12T22:59:02.237Z,6.80
2019-01-12T23:01:37.877Z,6.70
2019-01-12T23:04:06.608Z,6.80
2019-01-12T23:06:35.074Z,6.80
2019-01-12T23:09:05.092Z,6.70
2019-01-12T23:11:33.635Z,6.80
2019-01-12T23:14:02.221Z,6.70
2019-01-12T23:16:30.675Z,6.70
2019-01-12T23:18:59.108Z,6.70
2019-01-12T23:21:27.641Z,6.70
2019-01-12T23:23:56.175Z,6.60
2019-01-12T23:26:24.716Z,6.60
2019-01-12T23:28:53.165Z,6.60
2019-01-12T23:31:21.620Z,6.60
2019-01-12T23:33:50.132Z,6.60
2019-01-12T23:36:18.609Z,6.60
2019-01-12T23:38:47.048Z,6.60
2019-01-12T23:41:15.496Z,6.50
2019-01-12T23:43:43.965Z,6.50
2019-01-12T23:46:12.395Z,6.50
2019-01-12T23:48:40.872Z,6.50
2019-01-12T23:51:09.381Z,6.50
2019-01-12T23:53:37.860Z,6.50
2019-01-12T23:56:06.452Z,6.40
2019-01-12T23:58:34.919Z,6.40
